Z Českých Budějovic se bude přes zimu létat do egyptské Hurghady

10.05.24 Cestovní kancelář Čedok přidává na zimní sezonu první destinaci z Českých Budějovic. Z jihočeského letiště začne létat ve spolupráci s leteckou společností Corendon Airlines do egyptské Hurghady. Cestující se proletí na dovolenou k Rudému moři na palubě Boeingu 737-800 s kapacitou pro 189 cestujících v ekonomické třídě. Letadla budou startovat každou neděli od konce prosince, provoz plánuje cestovní kancelář prodloužit až do května. Celý článek

Czech Air Force a premiéra AERO L-39NG na Aviatické pouti

30.04.24 Pardubická Aviatická pouť je pravidelně i místem, kde se prezentuje i Armáda ČR. Stejně tak tomu bude i v letošním dvaatřicátém ročníku Aviatické pouti, který se uskuteční o víkendu 1. a 2. června 2024 v Pardubicích Celý článek

Zprávy

aktualizováno

19.05.24 Celý článek

Všechny zprávy    

Všechny články

Kurzy

Kalendář akcí

ICAO English Exam / Zkouška - každý pátek v měsíci
24.05.24 Online Worldwide Campus or Flying Academy Beranových 130 Praha
ICAO English Exam / Zkouška - každý pátek v měsíci
31.05.24 Online Worldwide Campus or Flying Academy Beranových 130 Praha
ICAO English Exam / Zkouška - každý pátek v měsíci
07.06.24 Online Worldwide Campus or Flying Academy Beranových 130 Praha
Austro Control Exam PPL / ATPL
11.06.24 Flying Academy Beranových 130 Praha
Austro Control Exam PPL / ATPL
12.06.24 Flying Academy Beranových 130 Praha

Všechny akce

Zeptejte se odborníka

Zkušený personál jedné z největších leteckých škol Flying Academy je připraven Vám pomoci s jakýmikoli otázkami týkajícími se letectví.

Zeptejte se

Newsletter

Přihlaste se k odběru novinek.

Aktuální počasí

LKKB
LKKB 190000Z VRB01KT CAVOK 12/09 Q1011

LKKV
LKKV 190000Z 09003KT 9999 FEW023 SCT046 09/08 Q1011

LKMT
LKMT 190030Z 00000KT 8000 NSC 12/12 Q1012 NOSIG

LKPR
LKPR 190030Z 22004KT CAVOK 10/09 Q1011 NOSIG

LKTB
LKTB 190030Z 07005KT 9999 VCSH FEW049 14/11 Q1011 NOSIG

Briefing

Kurzy měn

AUD AUD 15.18 Kč
EUR EUR 24.71 Kč
GBP GBP 28.84 Kč
HUF HUF 6.38 Kč
CHF CHF 25.07 Kč
USD USD 22.79 Kč